Helmsley, United Kingdom
Current Conditions -  °F | °C
As of 7:50 AM on Saturday 29 Nov 2014 (Local Time) from EGXU Reporting Station
Overcast Overcast  
Wind Chill: 50°   Ceiling: 700
Heat Index: 50°   Visibility: 1.8mi
Dew Point: 48°   Wind: 6mph
Humidity: 94%   Direction: 110°ESE
Pressure: 29.88"   Gusts: NA
Location:  54.25°N, 1.06°W
Report Text: EGXU 290750Z AUTO 11005KT 3000 // OVC007/// 10/09 Q1012
Loading
Personal Weather Stations






























Interactive Weather Map New forecast layout! Learn more

10-Day Weather Forecast

Advertisements
Track Severe Weather on mobile